sensor_id;sensor_type;location;lat;lon;timestamp;temperature;humidity
2130;DHT22;1071;52.544;13.374;2023-01-31T00:01:41;6.50;99.90
2130;DHT22;1071;52.544;13.374;2023-01-31T00:04:11;6.50;99.90
2130;DHT22;1071;52.544;13.374;2023-01-31T00:06:40;6.50;99.90
2130;DHT22;1071;52.544;13.374;2023-01-31T00:09:11;6.50;99.90
2130;DHT22;1071;52.544;13.374;2023-01-31T00:11:43;6.50;99.90
2130;DHT22;1071;52.544;13.374;2023-01-31T00:14:16;6.50;99.90
2130;DHT22;1071;52.544;13.374;2023-01-31T00:16:44;6.50;99.90
2130;DHT22;1071;52.544;13.374;2023-01-31T00:19:14;6.50;99.90
2130;DHT22;1071;52.544;13.374;2023-01-31T00:21:41;6.40;99.90
2130;DHT22;1071;52.544;13.374;2023-01-31T00:24:11;6.40;99.90
2130;DHT22;1071;52.544;13.374;2023-01-31T00:26:38;6.40;99.90
2130;DHT22;1071;52.544;13.374;2023-01-31T00:29:05;6.40;99.90
2130;DHT22;1071;52.544;13.374;2023-01-31T00:31:34;6.40;99.90
2130;DHT22;1071;52.544;13.374;2023-01-31T00:34:01;6.30;99.90
2130;DHT22;1071;52.544;13.374;2023-01-31T00:36:30;6.30;99.90
2130;DHT22;1071;52.544;13.374;2023-01-31T00:38:59;6.30;99.90
2130;DHT22;1071;52.544;13.374;2023-01-31T00:41:28;6.40;99.90
2130;DHT22;1071;52.544;13.374;2023-01-31T00:43:57;6.40;99.90
2130;DHT22;1071;52.544;13.374;2023-01-31T00:46:24;6.40;99.90
2130;DHT22;1071;52.544;13.374;2023-01-31T00:48:53;6.40;99.90
2130;DHT22;1071;52.544;13.374;2023-01-31T00:51:22;6.30;99.90
2130;DHT22;1071;52.544;13.374;2023-01-31T00:53:53;6.30;99.90
2130;DHT22;1071;52.544;13.374;2023-01-31T00:56:22;6.30;99.90
2130;DHT22;1071;52.544;13.374;2023-01-31T00:58:50;6.30;99.90
2130;DHT22;1071;52.544;13.374;2023-01-31T01:01:19;6.30;99.90
2130;DHT22;1071;52.544;13.374;2023-01-31T01:03:47;6.40;99.90
2130;DHT22;1071;52.544;13.374;2023-01-31T01:06:15;6.40;99.90
2130;DHT22;1071;52.544;13.374;2023-01-31T01:08:43;6.40;99.90
2130;DHT22;1071;52.544;13.374;2023-01-31T01:11:12;6.50;99.90
2130;DHT22;1071;52.544;13.374;2023-01-31T01:13:42;6.50;99.90
2130;DHT22;1071;52.544;13.374;2023-01-31T01:16:12;6.50;99.90
2130;DHT22;1071;52.544;13.374;2023-01-31T01:18:39;6.50;99.90
2130;DHT22;1071;52.544;13.374;2023-01-31T01:21:08;6.50;99.90
2130;DHT22;1071;52.544;13.374;2023-01-31T01:23:37;6.50;99.90
2130;DHT22;1071;52.544;13.374;2023-01-31T01:26:05;6.50;99.90
2130;DHT22;1071;52.544;13.374;2023-01-31T01:28:38;6.60;99.90
2130;DHT22;1071;52.544;13.374;2023-01-31T01:31:06;6.50;99.90
2130;DHT22;1071;52.544;13.374;2023-01-31T01:33:33;6.60;99.90
2130;DHT22;1071;52.544;13.374;2023-01-31T01:36:01;6.60;99.90
2130;DHT22;1071;52.544;13.374;2023-01-31T01:38:28;6.60;99.90
2130;DHT22;1071;52.544;13.374;2023-01-31T01:40:57;6.60;99.90
2130;DHT22;1071;52.544;13.374;2023-01-31T01:43:38;6.60;99.90
2130;DHT22;1071;52.544;13.374;2023-01-31T01:46:07;6.60;99.90
2130;DHT22;1071;52.544;13.374;2023-01-31T01:48:34;6.60;99.90
2130;DHT22;1071;52.544;13.374;2023-01-31T01:51:07;6.60;99.90
2130;DHT22;1071;52.544;13.374;2023-01-31T01:53:45;6.60;99.90
2130;DHT22;1071;52.544;13.374;2023-01-31T01:56:19;6.60;99.90
2130;DHT22;1071;52.544;13.374;2023-01-31T01:58:51;6.60;99.90
2130;DHT22;1071;52.544;13.374;2023-01-31T02:01:19;6.60;99.90
2130;DHT22;1071;52.544;13.374;2023-01-31T02:03:47;6.60;99.90
2130;DHT22;1071;52.544;13.374;2023-01-31T02:06:15;6.60;99.90
2130;DHT22;1071;52.544;13.374;2023-01-31T02:08:42;6.60;99.90
2130;DHT22;1071;52.544;13.374;2023-01-31T02:11:14;6.60;99.90
2130;DHT22;1071;52.544;13.374;2023-01-31T02:13:45;6.60;99.90
2130;DHT22;1071;52.544;13.374;2023-01-31T02:16:18;6.60;99.90
2130;DHT22;1071;52.544;13.374;2023-01-31T02:18:47;6.60;99.90
2130;DHT22;1071;52.544;13.374;2023-01-31T02:24:33;6.70;99.90
2130;DHT22;1071;52.544;13.374;2023-01-31T02:27:21;6.60;99.90
2130;DHT22;1071;52.544;13.374;2023-01-31T02:33:05;6.60;99.90
2130;DHT22;1071;52.544;13.374;2023-01-31T02:35:47;6.60;99.90
2130;DHT22;1071;52.544;13.374;2023-01-31T02:38:28;6.60;99.90
2130;DHT22;1071;52.544;13.374;2023-01-31T02:41:03;6.70;99.90
2130;DHT22;1071;52.544;13.374;2023-01-31T02:43:43;6.70;99.90
2130;DHT22;1071;52.544;13.374;2023-01-31T02:46:33;6.70;99.90
2130;DHT22;1071;52.544;13.374;2023-01-31T02:49:07;6.70;99.90
2130;DHT22;1071;52.544;13.374;2023-01-31T02:51:42;6.70;99.90
2130;DHT22;1071;52.544;13.374;2023-01-31T02:54:33;6.70;99.90
2130;DHT22;1071;52.544;13.374;2023-01-31T02:57:16;6.80;99.90
2130;DHT22;1071;52.544;13.374;2023-01-31T02:59:44;6.70;99.90
2130;DHT22;1071;52.544;13.374;2023-01-31T03:02:11;6.70;99.90
2130;DHT22;1071;52.544;13.374;2023-01-31T03:04:40;6.70;99.90
2130;DHT22;1071;52.544;13.374;2023-01-31T03:07:12;6.70;99.90
2130;DHT22;1071;52.544;13.374;2023-01-31T03:09:51;6.70;99.90
2130;DHT22;1071;52.544;13.374;2023-01-31T03:12:40;6.60;99.90
2130;DHT22;1071;52.544;13.374;2023-01-31T03:18:24;6.50;99.90
2130;DHT22;1071;52.544;13.374;2023-01-31T03:20:57;6.50;99.90
2130;DHT22;1071;52.544;13.374;2023-01-31T03:23:27;6.50;99.90
2130;DHT22;1071;52.544;13.374;2023-01-31T03:25:57;6.50;99.90
2130;DHT22;1071;52.544;13.374;2023-01-31T03:28:28;6.40;99.90
2130;DHT22;1071;52.544;13.374;2023-01-31T03:31:02;6.40;99.90
2130;DHT22;1071;52.544;13.374;2023-01-31T03:33:32;6.40;99.90
2130;DHT22;1071;52.544;13.374;2023-01-31T03:36:08;6.30;99.90
2130;DHT22;1071;52.544;13.374;2023-01-31T03:38:42;6.30;99.90
2130;DHT22;1071;52.544;13.374;2023-01-31T03:41:20;6.30;99.90
2130;DHT22;1071;52.544;13.374;2023-01-31T03:43:55;6.30;99.90
2130;DHT22;1071;52.544;13.374;2023-01-31T03:46:26;6.20;99.90
2130;DHT22;1071;52.544;13.374;2023-01-31T03:48:57;6.20;99.90
2130;DHT22;1071;52.544;13.374;2023-01-31T03:51:28;6.20;99.90
2130;DHT22;1071;52.544;13.374;2023-01-31T03:53:59;6.20;99.90
2130;DHT22;1071;52.544;13.374;2023-01-31T03:56:31;6.10;99.90
2130;DHT22;1071;52.544;13.374;2023-01-31T03:59:06;6.10;99.90
2130;DHT22;1071;52.544;13.374;2023-01-31T04:01:39;6.10;99.90
2130;DHT22;1071;52.544;13.374;2023-01-31T04:04:10;6.10;99.90
2130;DHT22;1071;52.544;13.374;2023-01-31T04:06:42;6.10;99.90
2130;DHT22;1071;52.544;13.374;2023-01-31T04:09:09;6.10;99.90
2130;DHT22;1071;52.544;13.374;2023-01-31T04:11:37;6.10;99.90
2130;DHT22;1071;52.544;13.374;2023-01-31T04:14:05;6.00;99.90
2130;DHT22;1071;52.544;13.374;2023-01-31T04:16:33;6.00;99.90
2130;DHT22;1071;52.544;13.374;2023-01-31T04:19:00;6.00;99.90
2130;DHT22;1071;52.544;13.374;2023-01-31T04:21:27;6.00;99.90
2130;DHT22;1071;52.544;13.374;2023-01-31T04:23:56;6.00;99.90
2130;DHT22;1071;52.544;13.374;2023-01-31T04:26:23;6.00;99.90
2130;DHT22;1071;52.544;13.374;2023-01-31T04:28:50;6.00;99.90
2130;DHT22;1071;52.544;13.374;2023-01-31T04:31:19;6.00;99.90
2130;DHT22;1071;52.544;13.374;2023-01-31T04:33:46;5.90;99.90
2130;DHT22;1071;52.544;13.374;2023-01-31T04:36:13;5.90;99.90
2130;DHT22;1071;52.544;13.374;2023-01-31T04:38:40;5.90;99.90
2130;DHT22;1071;52.544;13.374;2023-01-31T04:41:08;5.90;99.90
2130;DHT22;1071;52.544;13.374;2023-01-31T04:43:35;6.00;99.90
2130;DHT22;1071;52.544;13.374;2023-01-31T04:46:02;5.90;99.90
2130;DHT22;1071;52.544;13.374;2023-01-31T04:48:29;5.90;99.90
2130;DHT22;1071;52.544;13.374;2023-01-31T04:50:56;5.90;99.90
2130;DHT22;1071;52.544;13.374;2023-01-31T04:53:24;5.90;99.90
2130;DHT22;1071;52.544;13.374;2023-01-31T04:55:52;5.90;99.90
2130;DHT22;1071;52.544;13.374;2023-01-31T04:58:21;6.00;99.90
2130;DHT22;1071;52.544;13.374;2023-01-31T05:00:48;6.00;99.90
2130;DHT22;1071;52.544;13.374;2023-01-31T05:03:16;5.90;99.90
2130;DHT22;1071;52.544;13.374;2023-01-31T05:05:42;5.90;99.90
2130;DHT22;1071;52.544;13.374;2023-01-31T05:08:09;6.00;99.90
2130;DHT22;1071;52.544;13.374;2023-01-31T05:10:36;5.90;99.90
2130;DHT22;1071;52.544;13.374;2023-01-31T05:13:05;6.00;99.90
2130;DHT22;1071;52.544;13.374;2023-01-31T05:15:33;5.90;99.90
2130;DHT22;1071;52.544;13.374;2023-01-31T05:18:00;6.00;99.90
2130;DHT22;1071;52.544;13.374;2023-01-31T05:20:29;5.90;99.90
2130;DHT22;1071;52.544;13.374;2023-01-31T05:22:56;6.00;99.90
2130;DHT22;1071;52.544;13.374;2023-01-31T05:25:24;6.00;99.90
2130;DHT22;1071;52.544;13.374;2023-01-31T05:27:52;6.00;99.90
2130;DHT22;1071;52.544;13.374;2023-01-31T05:30:19;6.00;99.90
2130;DHT22;1071;52.544;13.374;2023-01-31T05:32:51;6.00;99.90
2130;DHT22;1071;52.544;13.374;2023-01-31T05:35:18;6.00;99.90
2130;DHT22;1071;52.544;13.374;2023-01-31T05:37:45;6.10;99.90
2130;DHT22;1071;52.544;13.374;2023-01-31T05:40:14;6.00;99.90
2130;DHT22;1071;52.544;13.374;2023-01-31T05:42:41;6.10;99.90
2130;DHT22;1071;52.544;13.374;2023-01-31T05:45:10;6.10;99.90
2130;DHT22;1071;52.544;13.374;2023-01-31T05:47:37;6.10;99.90
2130;DHT22;1071;52.544;13.374;2023-01-31T05:50:07;6.20;99.90
2130;DHT22;1071;52.544;13.374;2023-01-31T05:52:34;6.20;99.90
2130;DHT22;1071;52.544;13.374;2023-01-31T05:55:05;6.20;99.90
2130;DHT22;1071;52.544;13.374;2023-01-31T05:57:32;6.20;99.90
2130;DHT22;1071;52.544;13.374;2023-01-31T05:59:59;6.20;99.90
2130;DHT22;1071;52.544;13.374;2023-01-31T06:02:26;6.30;99.90
2130;DHT22;1071;52.544;13.374;2023-01-31T06:04:54;6.30;99.90
2130;DHT22;1071;52.544;13.374;2023-01-31T06:07:23;6.40;99.90
2130;DHT22;1071;52.544;13.374;2023-01-31T06:09:50;6.40;99.90
2130;DHT22;1071;52.544;13.374;2023-01-31T06:12:17;6.40;99.90
2130;DHT22;1071;52.544;13.374;2023-01-31T06:14:44;6.40;99.90
2130;DHT22;1071;52.544;13.374;2023-01-31T06:17:11;6.50;99.90
2130;DHT22;1071;52.544;13.374;2023-01-31T06:19:38;6.50;99.90
2130;DHT22;1071;52.544;13.374;2023-01-31T06:22:06;6.50;99.90
2130;DHT22;1071;52.544;13.374;2023-01-31T06:24:34;6.50;99.90
2130;DHT22;1071;52.544;13.374;2023-01-31T06:27:02;6.50;99.90
2130;DHT22;1071;52.544;13.374;2023-01-31T06:29:29;6.60;99.90
2130;DHT22;1071;52.544;13.374;2023-01-31T06:31:56;6.60;99.90
2130;DHT22;1071;52.544;13.374;2023-01-31T06:34:23;6.60;99.90
2130;DHT22;1071;52.544;13.374;2023-01-31T06:36:50;6.60;99.90
2130;DHT22;1071;52.544;13.374;2023-01-31T06:39:17;6.60;99.90
2130;DHT22;1071;52.544;13.374;2023-01-31T06:41:45;6.60;99.90
2130;DHT22;1071;52.544;13.374;2023-01-31T06:44:12;6.60;99.90
2130;DHT22;1071;52.544;13.374;2023-01-31T06:46:39;6.70;99.90
2130;DHT22;1071;52.544;13.374;2023-01-31T06:49:06;6.60;99.90
2130;DHT22;1071;52.544;13.374;2023-01-31T06:51:33;6.70;99.90
2130;DHT22;1071;52.544;13.374;2023-01-31T06:54:04;6.70;99.90
2130;DHT22;1071;52.544;13.374;2023-01-31T06:56:31;6.70;99.90
2130;DHT22;1071;52.544;13.374;2023-01-31T06:59:02;6.70;99.90
2130;DHT22;1071;52.544;13.374;2023-01-31T07:01:29;6.70;99.90
2130;DHT22;1071;52.544;13.374;2023-01-31T07:03:56;6.70;99.90
2130;DHT22;1071;52.544;13.374;2023-01-31T07:06:23;6.70;99.90
2130;DHT22;1071;52.544;13.374;2023-01-31T07:08:50;6.70;99.90
2130;DHT22;1071;52.544;13.374;2023-01-31T07:11:17;6.80;99.90
2130;DHT22;1071;52.544;13.374;2023-01-31T07:13:44;6.70;99.90
2130;DHT22;1071;52.544;13.374;2023-01-31T07:16:13;6.80;99.90
2130;DHT22;1071;52.544;13.374;2023-01-31T07:18:41;6.80;99.90
2130;DHT22;1071;52.544;13.374;2023-01-31T07:21:08;6.80;99.90
2130;DHT22;1071;52.544;13.374;2023-01-31T07:23:35;6.80;99.90
2130;DHT22;1071;52.544;13.374;2023-01-31T07:26:02;6.80;99.90
2130;DHT22;1071;52.544;13.374;2023-01-31T07:28:30;6.80;99.90
2130;DHT22;1071;52.544;13.374;2023-01-31T07:31:03;6.90;99.90
2130;DHT22;1071;52.544;13.374;2023-01-31T07:33:32;6.90;99.90
2130;DHT22;1071;52.544;13.374;2023-01-31T07:36:00;6.90;99.90
2130;DHT22;1071;52.544;13.374;2023-01-31T07:38:29;6.90;99.90
2130;DHT22;1071;52.544;13.374;2023-01-31T07:40:57;6.90;99.90
2130;DHT22;1071;52.544;13.374;2023-01-31T07:43:26;7.00;99.90
2130;DHT22;1071;52.544;13.374;2023-01-31T07:45:53;7.00;99.90
2130;DHT22;1071;52.544;13.374;2023-01-31T07:48:20;7.00;99.90
2130;DHT22;1071;52.544;13.374;2023-01-31T07:50:50;7.00;99.90
2130;DHT22;1071;52.544;13.374;2023-01-31T07:53:17;7.00;99.90
2130;DHT22;1071;52.544;13.374;2023-01-31T07:55:45;7.00;99.90
2130;DHT22;1071;52.544;13.374;2023-01-31T07:58:13;7.10;99.90
2130;DHT22;1071;52.544;13.374;2023-01-31T08:00:41;7.00;99.90
2130;DHT22;1071;52.544;13.374;2023-01-31T08:03:27;7.00;99.90
2130;DHT22;1071;52.544;13.374;2023-01-31T08:06:06;7.10;99.90
2130;DHT22;1071;52.544;13.374;2023-01-31T08:08:35;7.10;99.90
2130;DHT22;1071;52.544;13.374;2023-01-31T08:11:05;7.10;99.90
2130;DHT22;1071;52.544;13.374;2023-01-31T08:13:32;7.10;99.90
2130;DHT22;1071;52.544;13.374;2023-01-31T08:16:00;7.10;99.90
2130;DHT22;1071;52.544;13.374;2023-01-31T08:18:27;7.20;99.90
2130;DHT22;1071;52.544;13.374;2023-01-31T08:20:55;7.20;99.90
2130;DHT22;1071;52.544;13.374;2023-01-31T08:23:25;7.20;99.90
2130;DHT22;1071;52.544;13.374;2023-01-31T08:25:58;7.20;99.90
2130;DHT22;1071;52.544;13.374;2023-01-31T08:28:28;7.20;99.90
2130;DHT22;1071;52.544;13.374;2023-01-31T08:30:56;7.20;99.90
2130;DHT22;1071;52.544;13.374;2023-01-31T08:33:24;7.20;99.90
2130;DHT22;1071;52.544;13.374;2023-01-31T08:35:55;7.20;99.90
2130;DHT22;1071;52.544;13.374;2023-01-31T08:38:26;7.20;99.90
2130;DHT22;1071;52.544;13.374;2023-01-31T08:40:53;7.20;99.90
2130;DHT22;1071;52.544;13.374;2023-01-31T08:43:23;7.20;99.90
2130;DHT22;1071;52.544;13.374;2023-01-31T08:45:54;7.20;99.90
2130;DHT22;1071;52.544;13.374;2023-01-31T08:48:21;7.20;99.90
2130;DHT22;1071;52.544;13.374;2023-01-31T08:50:48;7.30;99.90
2130;DHT22;1071;52.544;13.374;2023-01-31T08:53:15;7.30;99.90
2130;DHT22;1071;52.544;13.374;2023-01-31T08:55:43;7.30;99.90
2130;DHT22;1071;52.544;13.374;2023-01-31T08:58:10;7.30;99.90
2130;DHT22;1071;52.544;13.374;2023-01-31T09:00:37;7.30;99.90
2130;DHT22;1071;52.544;13.374;2023-01-31T09:03:04;7.30;99.90
2130;DHT22;1071;52.544;13.374;2023-01-31T09:05:31;7.30;99.90
2130;DHT22;1071;52.544;13.374;2023-01-31T09:08:00;7.30;99.90
2130;DHT22;1071;52.544;13.374;2023-01-31T09:10:27;7.30;99.90
2130;DHT22;1071;52.544;13.374;2023-01-31T09:12:55;7.30;99.90
2130;DHT22;1071;52.544;13.374;2023-01-31T09:15:24;7.40;99.90
2130;DHT22;1071;52.544;13.374;2023-01-31T09:17:52;7.40;99.90
2130;DHT22;1071;52.544;13.374;2023-01-31T09:20:19;7.40;99.90
2130;DHT22;1071;52.544;13.374;2023-01-31T09:22:46;7.40;99.90
2130;DHT22;1071;52.544;13.374;2023-01-31T09:25:14;7.40;99.90
2130;DHT22;1071;52.544;13.374;2023-01-31T09:27:41;7.40;99.90
2130;DHT22;1071;52.544;13.374;2023-01-31T09:30:13;7.40;99.90
2130;DHT22;1071;52.544;13.374;2023-01-31T09:32:41;7.40;99.90
2130;DHT22;1071;52.544;13.374;2023-01-31T09:35:09;7.40;99.90
2130;DHT22;1071;52.544;13.374;2023-01-31T09:37:37;7.50;99.90
2130;DHT22;1071;52.544;13.374;2023-01-31T09:40:05;7.50;99.90
2130;DHT22;1071;52.544;13.374;2023-01-31T09:42:34;7.50;99.90
2130;DHT22;1071;52.544;13.374;2023-01-31T09:45:06;7.50;99.90
2130;DHT22;1071;52.544;13.374;2023-01-31T09:47:38;7.60;99.90
2130;DHT22;1071;52.544;13.374;2023-01-31T09:50:17;7.60;99.90
2130;DHT22;1071;52.544;13.374;2023-01-31T09:52:46;7.70;99.90
2130;DHT22;1071;52.544;13.374;2023-01-31T09:55:15;7.70;99.90
2130;DHT22;1071;52.544;13.374;2023-01-31T09:57:52;7.70;99.90
2130;DHT22;1071;52.544;13.374;2023-01-31T10:00:27;7.80;99.90
2130;DHT22;1071;52.544;13.374;2023-01-31T10:03:06;7.80;99.90
2130;DHT22;1071;52.544;13.374;2023-01-31T10:05:49;7.90;99.90
2130;DHT22;1071;52.544;13.374;2023-01-31T10:08:27;7.90;99.90
2130;DHT22;1071;52.544;13.374;2023-01-31T10:11:00;7.90;99.90
2130;DHT22;1071;52.544;13.374;2023-01-31T10:13:30;7.90;99.90
2130;DHT22;1071;52.544;13.374;2023-01-31T10:16:05;8.00;99.90
2130;DHT22;1071;52.544;13.374;2023-01-31T10:18:45;8.00;99.90
2130;DHT22;1071;52.544;13.374;2023-01-31T10:21:17;8.00;99.90
2130;DHT22;1071;52.544;13.374;2023-01-31T10:23:49;8.00;99.90
2130;DHT22;1071;52.544;13.374;2023-01-31T10:26:21;8.00;99.90
2130;DHT22;1071;52.544;13.374;2023-01-31T10:28:54;8.00;99.90
2130;DHT22;1071;52.544;13.374;2023-01-31T10:31:29;7.90;99.90
2130;DHT22;1071;52.544;13.374;2023-01-31T10:34:03;8.00;99.90
2130;DHT22;1071;52.544;13.374;2023-01-31T10:36:36;8.00;99.90
2130;DHT22;1071;52.544;13.374;2023-01-31T10:39:11;8.00;99.90
2130;DHT22;1071;52.544;13.374;2023-01-31T10:41:46;8.00;99.90
2130;DHT22;1071;52.544;13.374;2023-01-31T10:44:23;8.10;99.90
2130;DHT22;1071;52.544;13.374;2023-01-31T10:46:51;8.10;99.90
2130;DHT22;1071;52.544;13.374;2023-01-31T10:49:22;8.10;99.90
2130;DHT22;1071;52.544;13.374;2023-01-31T10:52:03;8.10;99.90
2130;DHT22;1071;52.544;13.374;2023-01-31T10:54:41;8.00;99.90
2130;DHT22;1071;52.544;13.374;2023-01-31T10:57:11;7.90;99.90
2130;DHT22;1071;52.544;13.374;2023-01-31T10:59:41;8.00;99.90
2130;DHT22;1071;52.544;13.374;2023-01-31T11:02:17;7.90;99.90
2130;DHT22;1071;52.544;13.374;2023-01-31T11:04:48;7.90;99.90
2130;DHT22;1071;52.544;13.374;2023-01-31T11:07:16;7.90;99.90
2130;DHT22;1071;52.544;13.374;2023-01-31T11:09:47;8.00;99.90
2130;DHT22;1071;52.544;13.374;2023-01-31T11:12:16;8.00;99.90
2130;DHT22;1071;52.544;13.374;2023-01-31T11:14:43;8.00;99.90
2130;DHT22;1071;52.544;13.374;2023-01-31T11:17:16;8.10;99.90
2130;DHT22;1071;52.544;13.374;2023-01-31T11:19:47;8.10;99.90
2130;DHT22;1071;52.544;13.374;2023-01-31T11:22:23;8.00;99.90
2130;DHT22;1071;52.544;13.374;2023-01-31T11:24:52;8.10;99.90
2130;DHT22;1071;52.544;13.374;2023-01-31T11:27:24;8.10;99.90
2130;DHT22;1071;52.544;13.374;2023-01-31T11:29:52;8.10;99.90
2130;DHT22;1071;52.544;13.374;2023-01-31T11:32:25;8.10;99.90
2130;DHT22;1071;52.544;13.374;2023-01-31T11:34:57;8.20;99.90
2130;DHT22;1071;52.544;13.374;2023-01-31T11:37:25;8.20;99.90
2130;DHT22;1071;52.544;13.374;2023-01-31T11:39:56;8.20;99.90
2130;DHT22;1071;52.544;13.374;2023-01-31T11:42:24;8.20;99.90
2130;DHT22;1071;52.544;13.374;2023-01-31T11:44:56;8.30;99.90
2130;DHT22;1071;52.544;13.374;2023-01-31T11:47:30;8.30;99.90
2130;DHT22;1071;52.544;13.374;2023-01-31T11:50:02;8.30;99.90
2130;DHT22;1071;52.544;13.374;2023-01-31T11:52:31;8.30;99.90
2130;DHT22;1071;52.544;13.374;2023-01-31T11:55:00;8.30;99.90
2130;DHT22;1071;52.544;13.374;2023-01-31T11:57:32;8.30;99.90
2130;DHT22;1071;52.544;13.374;2023-01-31T12:00:04;8.30;99.90
2130;DHT22;1071;52.544;13.374;2023-01-31T12:02:36;8.30;99.90
2130;DHT22;1071;52.544;13.374;2023-01-31T12:05:10;8.20;99.90
2130;DHT22;1071;52.544;13.374;2023-01-31T12:07:43;8.20;99.90
2130;DHT22;1071;52.544;13.374;2023-01-31T12:10:32;8.20;99.90
2130;DHT22;1071;52.544;13.374;2023-01-31T12:13:01;8.20;99.90
2130;DHT22;1071;52.544;13.374;2023-01-31T12:15:29;8.10;99.90
2130;DHT22;1071;52.544;13.374;2023-01-31T12:17:59;8.10;99.90
2130;DHT22;1071;52.544;13.374;2023-01-31T12:20:37;8.10;99.90
2130;DHT22;1071;52.544;13.374;2023-01-31T12:23:20;8.20;99.90
2130;DHT22;1071;52.544;13.374;2023-01-31T12:26:01;8.20;99.90
2130;DHT22;1071;52.544;13.374;2023-01-31T12:28:43;8.10;99.90
2130;DHT22;1071;52.544;13.374;2023-01-31T12:31:28;8.20;99.90
2130;DHT22;1071;52.544;13.374;2023-01-31T12:34:10;8.10;99.90
2130;DHT22;1071;52.544;13.374;2023-01-31T12:36:50;8.10;99.90
2130;DHT22;1071;52.544;13.374;2023-01-31T12:39:42;8.00;99.90
2130;DHT22;1071;52.544;13.374;2023-01-31T12:42:22;8.00;99.90
2130;DHT22;1071;52.544;13.374;2023-01-31T12:44:59;8.00;99.90
2130;DHT22;1071;52.544;13.374;2023-01-31T12:47:52;8.00;99.90
2130;DHT22;1071;52.544;13.374;2023-01-31T12:50:29;7.90;99.90
2130;DHT22;1071;52.544;13.374;2023-01-31T12:53:28;7.80;99.90
2130;DHT22;1071;52.544;13.374;2023-01-31T12:56:12;7.80;99.90
2130;DHT22;1071;52.544;13.374;2023-01-31T12:58:48;7.80;99.90
2130;DHT22;1071;52.544;13.374;2023-01-31T13:01:20;7.80;99.90
2130;DHT22;1071;52.544;13.374;2023-01-31T13:04:03;7.70;99.90
2130;DHT22;1071;52.544;13.374;2023-01-31T13:06:36;7.70;99.90
2130;DHT22;1071;52.544;13.374;2023-01-31T13:09:11;7.70;99.90
2130;DHT22;1071;52.544;13.374;2023-01-31T13:11:43;7.70;99.90
2130;DHT22;1071;52.544;13.374;2023-01-31T13:14:15;7.70;99.90
2130;DHT22;1071;52.544;13.374;2023-01-31T13:16:46;7.70;99.90
2130;DHT22;1071;52.544;13.374;2023-01-31T13:19:18;7.70;99.90
2130;DHT22;1071;52.544;13.374;2023-01-31T13:21:51;7.60;99.90
2130;DHT22;1071;52.544;13.374;2023-01-31T13:24:24;7.60;99.90
2130;DHT22;1071;52.544;13.374;2023-01-31T13:26:55;7.60;99.90
2130;DHT22;1071;52.544;13.374;2023-01-31T13:29:28;7.50;99.90
2130;DHT22;1071;52.544;13.374;2023-01-31T13:31:59;7.60;99.90
2130;DHT22;1071;52.544;13.374;2023-01-31T13:34:34;7.60;99.90
2130;DHT22;1071;52.544;13.374;2023-01-31T13:37:08;7.60;99.90
2130;DHT22;1071;52.544;13.374;2023-01-31T13:39:39;7.60;99.90
2130;DHT22;1071;52.544;13.374;2023-01-31T13:42:09;7.60;99.90
2130;DHT22;1071;52.544;13.374;2023-01-31T13:44:39;7.60;99.90
2130;DHT22;1071;52.544;13.374;2023-01-31T13:47:13;7.60;99.90
2130;DHT22;1071;52.544;13.374;2023-01-31T13:49:45;7.60;99.90
2130;DHT22;1071;52.544;13.374;2023-01-31T13:52:18;7.60;99.90
2130;DHT22;1071;52.544;13.374;2023-01-31T13:54:50;7.60;99.90
2130;DHT22;1071;52.544;13.374;2023-01-31T13:57:22;7.70;99.90
2130;DHT22;1071;52.544;13.374;2023-01-31T13:59:53;7.70;99.90
2130;DHT22;1071;52.544;13.374;2023-01-31T14:02:21;7.60;99.90
2130;DHT22;1071;52.544;13.374;2023-01-31T14:04:50;7.60;99.90
2130;DHT22;1071;52.544;13.374;2023-01-31T14:07:24;7.60;99.90
2130;DHT22;1071;52.544;13.374;2023-01-31T14:10:27;7.70;99.90
2130;DHT22;1071;52.544;13.374;2023-01-31T14:13:24;7.70;99.90
2130;DHT22;1071;52.544;13.374;2023-01-31T14:15:54;7.70;99.90
2130;DHT22;1071;52.544;13.374;2023-01-31T14:18:38;7.70;99.90
2130;DHT22;1071;52.544;13.374;2023-01-31T14:27:44;7.70;99.90
2130;DHT22;1071;52.544;13.374;2023-01-31T14:30:34;7.70;99.90
2130;DHT22;1071;52.544;13.374;2023-01-31T14:33:05;7.60;99.90
2130;DHT22;1071;52.544;13.374;2023-01-31T14:38:55;7.60;99.90
2130;DHT22;1071;52.544;13.374;2023-01-31T14:41:38;7.60;99.90
2130;DHT22;1071;52.544;13.374;2023-01-31T14:44:17;7.60;99.90
2130;DHT22;1071;52.544;13.374;2023-01-31T14:47:06;7.60;99.90
2130;DHT22;1071;52.544;13.374;2023-01-31T14:52:52;7.60;99.90
2130;DHT22;1071;52.544;13.374;2023-01-31T14:55:38;7.60;99.90
2130;DHT22;1071;52.544;13.374;2023-01-31T14:58:13;7.60;99.90
2130;DHT22;1071;52.544;13.374;2023-01-31T15:00:48;7.60;99.90
2130;DHT22;1071;52.544;13.374;2023-01-31T15:03:19;7.70;99.90
2130;DHT22;1071;52.544;13.374;2023-01-31T15:05:50;7.70;99.90
2130;DHT22;1071;52.544;13.374;2023-01-31T15:08:44;7.70;99.90
2130;DHT22;1071;52.544;13.374;2023-01-31T15:11:35;7.70;99.90
2130;DHT22;1071;52.544;13.374;2023-01-31T15:14:25;7.70;99.90
2130;DHT22;1071;52.544;13.374;2023-01-31T15:16:58;7.70;99.90
2130;DHT22;1071;52.544;13.374;2023-01-31T15:19:33;7.70;99.90
2130;DHT22;1071;52.544;13.374;2023-01-31T15:22:05;7.70;99.90
2130;DHT22;1071;52.544;13.374;2023-01-31T15:24:35;7.70;99.90
2130;DHT22;1071;52.544;13.374;2023-01-31T15:27:06;7.70;99.90
2130;DHT22;1071;52.544;13.374;2023-01-31T15:29:50;7.70;99.90
2130;DHT22;1071;52.544;13.374;2023-01-31T15:32:22;7.70;99.90
2130;DHT22;1071;52.544;13.374;2023-01-31T15:34:54;7.70;99.90
2130;DHT22;1071;52.544;13.374;2023-01-31T15:37:29;7.70;99.90
2130;DHT22;1071;52.544;13.374;2023-01-31T15:40:16;7.70;99.90
2130;DHT22;1071;52.544;13.374;2023-01-31T15:42:43;7.70;99.90
2130;DHT22;1071;52.544;13.374;2023-01-31T15:45:20;7.70;99.90
2130;DHT22;1071;52.544;13.374;2023-01-31T15:47:57;7.70;99.90
2130;DHT22;1071;52.544;13.374;2023-01-31T15:50:25;7.70;99.90
2130;DHT22;1071;52.544;13.374;2023-01-31T15:52:54;7.60;99.90
2130;DHT22;1071;52.544;13.374;2023-01-31T15:55:22;7.70;99.90
2130;DHT22;1071;52.544;13.374;2023-01-31T15:57:51;7.70;99.90
2130;DHT22;1071;52.544;13.374;2023-01-31T16:00:25;7.70;99.90
2130;DHT22;1071;52.544;13.374;2023-01-31T16:02:53;7.70;99.90
2130;DHT22;1071;52.544;13.374;2023-01-31T16:05:29;7.80;99.90
2130;DHT22;1071;52.544;13.374;2023-01-31T16:08:00;7.80;99.90
2130;DHT22;1071;52.544;13.374;2023-01-31T16:11:03;7.80;99.90
2130;DHT22;1071;52.544;13.374;2023-01-31T16:13:36;7.80;99.90
2130;DHT22;1071;52.544;13.374;2023-01-31T16:16:11;7.80;99.90
2130;DHT22;1071;52.544;13.374;2023-01-31T16:18:42;7.80;99.90
2130;DHT22;1071;52.544;13.374;2023-01-31T16:21:22;7.80;99.90
2130;DHT22;1071;52.544;13.374;2023-01-31T16:23:57;7.80;99.90
2130;DHT22;1071;52.544;13.374;2023-01-31T16:26:27;7.90;99.90
2130;DHT22;1071;52.544;13.374;2023-01-31T16:28:58;7.90;99.90
2130;DHT22;1071;52.544;13.374;2023-01-31T16:31:28;7.80;99.90
2130;DHT22;1071;52.544;13.374;2023-01-31T16:33:58;7.90;99.90
2130;DHT22;1071;52.544;13.374;2023-01-31T16:36:30;7.90;99.90
2130;DHT22;1071;52.544;13.374;2023-01-31T16:39:02;7.90;99.90
2130;DHT22;1071;52.544;13.374;2023-01-31T16:41:47;7.90;99.90
2130;DHT22;1071;52.544;13.374;2023-01-31T16:44:18;7.90;99.90
2130;DHT22;1071;52.544;13.374;2023-01-31T16:46:48;7.90;99.90
2130;DHT22;1071;52.544;13.374;2023-01-31T16:49:21;7.90;99.90
2130;DHT22;1071;52.544;13.374;2023-01-31T16:51:54;7.90;99.90
2130;DHT22;1071;52.544;13.374;2023-01-31T16:54:23;7.90;99.90